createdAt,value
2019-04-28T00:04:01.387Z,33.30
2019-04-28T00:09:11.480Z,33.30
2019-04-28T00:14:21.891Z,33.30
2019-04-28T00:19:31.020Z,33.30
2019-04-28T00:24:41.620Z,33.40
2019-04-28T00:29:51.699Z,33.30
2019-04-28T00:34:59.074Z,33.40
2019-04-28T00:40:10.972Z,33.60
2019-04-28T00:45:19.284Z,33.60
2019-04-28T00:50:27.310Z,33.70
2019-04-28T00:55:35.822Z,33.80
2019-04-28T01:00:45.892Z,33.90
2019-04-28T01:05:54.305Z,33.90
2019-04-28T01:11:06.035Z,34.00
2019-04-28T01:16:14.883Z,34.10
2019-04-28T01:21:25.158Z,34.20
2019-04-28T01:26:33.783Z,34.20
2019-04-28T01:31:43.399Z,34.40
2019-04-28T01:36:51.928Z,34.50
2019-04-28T01:42:00.614Z,34.60
2019-04-28T01:47:10.079Z,34.60
2019-04-28T01:52:20.188Z,34.70
2019-04-28T01:57:27.375Z,34.80
2019-04-28T02:02:36.177Z,34.90
2019-04-28T02:07:44.418Z,35.00
2019-04-28T02:12:52.774Z,35.10
2019-04-28T02:18:00.828Z,35.10
2019-04-28T02:23:10.566Z,35.20
2019-04-28T02:28:19.790Z,35.40
2019-04-28T02:33:31.116Z,35.50
2019-04-28T02:38:37.669Z,35.60
2019-04-28T02:43:45.657Z,35.70
2019-04-28T02:48:54.615Z,35.80
2019-04-28T02:54:02.836Z,35.90
2019-04-28T02:59:14.098Z,36.00
2019-04-28T03:04:22.438Z,36.00
2019-04-28T03:09:31.052Z,36.20
2019-04-28T03:14:43.456Z,36.40
2019-04-28T03:19:51.364Z,36.50
2019-04-28T03:25:00.903Z,36.70
2019-04-28T03:30:13.280Z,36.80
2019-04-28T03:35:22.887Z,36.90
2019-04-28T03:40:33.923Z,36.90
2019-04-28T03:45:42.909Z,37.10
2019-04-28T03:50:51.362Z,37.20
2019-04-28T03:56:01.506Z,37.40
2019-04-28T04:01:10.822Z,37.60
2019-04-28T04:06:19.532Z,37.60
2019-04-28T04:11:31.174Z,37.80
2019-04-28T04:16:40.788Z,37.90
2019-04-28T04:21:50.557Z,38.00
2019-04-28T04:27:00.651Z,38.30
2019-04-28T04:32:14.786Z,38.40
2019-04-28T04:37:20.541Z,38.50
2019-04-28T04:42:30.453Z,38.70
2019-04-28T04:47:40.442Z,38.80
2019-04-28T04:52:50.051Z,38.90
2019-04-28T04:57:55.848Z,39.10
2019-04-28T05:03:05.429Z,39.30
2019-04-28T05:08:15.461Z,39.40
2019-04-28T05:13:22.993Z,39.50
2019-04-28T05:18:31.198Z,39.60
2019-04-28T05:23:41.059Z,39.60
2019-04-28T05:28:53.269Z,39.70
2019-04-28T05:33:59.918Z,39.80
2019-04-28T05:39:10.460Z,39.90
2019-04-28T05:44:20.131Z,40.00
2019-04-28T05:49:29.683Z,40.10
2019-04-28T05:54:40.349Z,40.20
2019-04-28T05:59:50.520Z,40.30
2019-04-28T06:04:59.951Z,40.50
2019-04-28T06:10:08.028Z,40.50
2019-04-28T06:15:16.103Z,40.50
2019-04-28T06:20:24.466Z,40.60
2019-04-28T06:25:32.923Z,40.50
2019-04-28T06:30:41.288Z,40.60
2019-04-28T06:35:49.261Z,40.60
2019-04-28T06:40:57.430Z,40.60
2019-04-28T06:46:05.620Z,40.70
2019-04-28T06:51:14.041Z,40.80
2019-04-28T06:56:22.355Z,41.00
2019-04-28T07:01:30.719Z,41.10
2019-04-28T07:06:39.434Z,41.30
2019-04-28T07:11:47.936Z,41.40
2019-04-28T07:16:56.572Z,41.50
2019-04-28T07:22:06.564Z,41.60
2019-04-28T07:27:14.883Z,41.50
2019-04-28T07:32:23.388Z,41.50
2019-04-28T07:37:31.669Z,41.70
2019-04-28T07:42:39.979Z,41.80
2019-04-28T07:47:48.264Z,41.80
2019-04-28T07:52:57.266Z,41.80
2019-04-28T07:58:05.450Z,41.70
2019-04-28T08:03:14.173Z,41.70
2019-04-28T08:08:23.834Z,41.60
2019-04-28T08:13:32.371Z,41.70
2019-04-28T08:18:44.011Z,41.70
2019-04-28T08:23:52.543Z,41.70
2019-04-28T08:29:00.406Z,41.80
2019-04-28T08:34:10.542Z,42.00
2019-04-28T08:39:18.990Z,42.00
2019-04-28T08:44:27.457Z,42.10
2019-04-28T08:49:35.604Z,42.00
2019-04-28T08:54:43.571Z,42.00
2019-04-28T08:59:52.039Z,42.10
2019-04-28T09:05:00.435Z,42.20
2019-04-28T09:10:09.781Z,42.20
2019-04-28T09:15:16.803Z,42.20
2019-04-28T09:20:25.378Z,42.30
2019-04-28T09:25:34.972Z,42.50
2019-04-28T09:30:43.638Z,42.50
2019-04-28T09:35:52.239Z,42.40
2019-04-28T09:41:00.756Z,42.40
2019-04-28T09:46:10.586Z,42.30
2019-04-28T09:51:18.795Z,42.10
2019-04-28T09:56:26.927Z,42.10
2019-04-28T10:01:34.937Z,42.30
2019-04-28T10:06:43.326Z,42.30
2019-04-28T10:11:51.487Z,41.60
2019-04-28T10:17:00.176Z,41.20
2019-04-28T10:22:08.642Z,40.70
2019-04-28T10:27:17.429Z,40.50
2019-04-28T10:32:25.764Z,40.40
2019-04-28T10:37:33.455Z,40.10
2019-04-28T10:42:41.414Z,40.10
2019-04-28T10:47:49.570Z,40.10
2019-04-28T10:52:57.662Z,39.90
2019-04-28T10:58:05.463Z,39.70
2019-04-28T11:03:13.485Z,39.70
2019-04-28T11:08:22.450Z,39.60
2019-04-28T11:13:30.266Z,39.50
2019-04-28T11:18:37.872Z,39.40
2019-04-28T11:23:45.785Z,39.40
2019-04-28T11:28:54.405Z,39.30
2019-04-28T11:34:03.598Z,39.20
2019-04-28T11:39:21.512Z,39.10
2019-04-28T11:44:29.313Z,38.90
2019-04-28T11:49:37.110Z,38.80
2019-04-28T11:54:44.747Z,38.80
2019-04-28T11:59:54.069Z,38.70
2019-04-28T12:05:02.389Z,38.60
2019-04-28T12:10:11.557Z,38.50
2019-04-28T12:15:20.959Z,38.40
2019-04-28T12:20:28.577Z,38.40
2019-04-28T12:25:37.654Z,38.30
2019-04-28T12:30:45.676Z,38.20
2019-04-28T12:35:57.784Z,38.10
2019-04-28T12:41:05.609Z,38.00
2019-04-28T12:46:13.811Z,37.80
2019-04-28T12:51:21.832Z,37.80
2019-04-28T12:56:29.752Z,37.80
2019-04-28T13:01:38.660Z,37.70
2019-04-28T13:06:47.843Z,37.70
2019-04-28T13:11:55.678Z,37.60
2019-04-28T13:17:03.575Z,37.40
2019-04-28T13:22:11.289Z,37.20
2019-04-28T13:27:19.201Z,37.00
2019-04-28T13:32:27.015Z,36.70
2019-04-28T13:37:34.852Z,36.30
2019-04-28T13:42:42.710Z,36.30
2019-04-28T13:47:50.711Z,36.30
2019-04-28T13:52:58.774Z,36.10
2019-04-28T13:58:06.898Z,36.10
2019-04-28T14:03:17.404Z,36.10
2019-04-28T14:08:25.182Z,36.00
2019-04-28T14:13:33.159Z,35.90
2019-04-28T14:18:41.168Z,35.90
2019-04-28T14:23:49.189Z,35.80
2019-04-28T14:29:01.109Z,35.80
2019-04-28T14:34:13.501Z,35.80
2019-04-28T14:39:38.884Z,35.80
2019-04-28T14:45:19.428Z,35.70
2019-04-28T14:50:28.687Z,35.60
2019-04-28T14:55:38.105Z,35.50
2019-04-28T15:00:47.369Z,35.50
2019-04-28T15:05:57.786Z,35.50
2019-04-28T15:11:26.992Z,35.50
2019-04-28T15:16:35.149Z,35.40
2019-04-28T15:21:43.228Z,35.40
2019-04-28T15:26:51.364Z,35.30
2019-04-28T15:37:35.161Z,35.30
2019-04-28T15:42:42.948Z,35.20
2019-04-28T15:47:50.960Z,35.10
2019-04-28T15:52:59.249Z,35.10
2019-04-28T15:58:08.434Z,35.00
2019-04-28T16:03:16.398Z,35.00
2019-04-28T16:08:24.217Z,35.00
2019-04-28T16:13:32.173Z,35.00
2019-04-28T16:18:40.214Z,34.90
2019-04-28T16:23:48.775Z,34.90
2019-04-28T16:28:56.832Z,34.90
2019-04-28T16:34:04.775Z,34.80
2019-04-28T16:39:13.928Z,34.70
2019-04-28T16:44:25.875Z,34.70
2019-04-28T16:49:34.947Z,34.70
2019-04-28T16:54:42.880Z,34.60
2019-04-28T16:59:52.818Z,34.60
2019-04-28T17:05:01.138Z,34.50
2019-04-28T17:10:10.338Z,34.50
2019-04-28T17:15:18.340Z,34.50
2019-04-28T17:20:26.741Z,34.40
2019-04-28T17:25:34.574Z,34.40
2019-04-28T17:30:42.958Z,34.40
2019-04-28T17:35:51.279Z,34.30
2019-04-28T17:40:59.222Z,34.30
2019-04-28T17:46:07.353Z,34.30
2019-04-28T17:51:16.328Z,34.20
2019-04-28T17:56:24.030Z,34.20
2019-04-28T18:01:33.053Z,34.10
2019-04-28T18:06:42.797Z,34.20
2019-04-28T18:11:53.779Z,34.10
2019-04-28T18:17:02.650Z,34.10
2019-04-28T18:22:11.089Z,34.10
2019-04-28T18:27:19.172Z,34.00
2019-04-28T18:32:28.463Z,34.00
2019-04-28T18:37:37.866Z,34.00
2019-04-28T18:48:13.922Z,34.00
2019-04-28T18:53:22.477Z,34.00
2019-04-28T18:58:33.252Z,33.90
2019-04-28T19:03:40.415Z,33.90
2019-04-28T19:08:50.300Z,33.80
2019-04-28T19:13:59.691Z,33.90
2019-04-28T19:19:09.104Z,33.80
2019-04-28T19:24:18.244Z,33.80
2019-04-28T19:29:27.618Z,33.80
2019-04-28T19:34:36.830Z,33.70
2019-04-28T19:39:45.268Z,33.70
2019-04-28T19:44:53.576Z,33.70
2019-04-28T19:50:01.932Z,33.60
2019-04-28T19:55:12.484Z,33.60
2019-04-28T20:00:22.092Z,33.60
2019-04-28T20:05:32.520Z,33.60
2019-04-28T20:10:40.575Z,33.60
2019-04-28T20:15:48.992Z,33.50
2019-04-28T20:20:57.120Z,33.50
2019-04-28T20:26:05.285Z,33.50
2019-04-28T20:31:13.213Z,33.40
2019-04-28T20:36:22.321Z,33.40
2019-04-28T20:41:34.930Z,33.40
2019-04-28T20:46:43.630Z,33.30
2019-04-28T20:51:53.454Z,33.30
2019-04-28T20:57:21.270Z,33.30
2019-04-28T21:02:32.133Z,33.20
2019-04-28T21:07:41.358Z,33.10
2019-04-28T21:12:49.707Z,33.10
2019-04-28T21:17:58.359Z,33.10
2019-04-28T21:23:06.431Z,33.10
2019-04-28T21:28:14.628Z,33.10
2019-04-28T21:33:23.710Z,33.10
2019-04-28T21:38:32.042Z,33.00
2019-04-28T21:43:41.832Z,33.10
2019-04-28T21:48:51.034Z,32.90
2019-04-28T21:53:59.695Z,32.90
2019-04-28T21:59:08.172Z,32.90
2019-04-28T22:04:16.599Z,32.90
2019-04-28T22:09:25.085Z,32.80
2019-04-28T22:14:34.492Z,32.80
2019-04-28T22:19:51.468Z,32.80
2019-04-28T22:25:21.801Z,32.80
2019-04-28T22:30:49.923Z,32.70
2019-04-28T22:35:59.202Z,32.70
2019-04-28T22:41:07.887Z,32.60
2019-04-28T22:46:16.546Z,32.60
2019-04-28T22:51:33.015Z,32.60
2019-04-28T22:57:02.745Z,32.50
2019-04-28T23:02:12.345Z,32.40
2019-04-28T23:07:23.870Z,32.40
2019-04-28T23:12:35.260Z,32.40
2019-04-28T23:17:48.901Z,32.40
2019-04-28T23:23:03.465Z,32.40
2019-04-28T23:28:21.032Z,32.30
2019-04-28T23:33:36.647Z,32.40
2019-04-28T23:38:51.882Z,32.40
2019-04-28T23:44:13.352Z,32.40
2019-04-28T23:49:32.249Z,32.40
2019-04-28T23:54:42.322Z,32.50
2019-04-28T23:59:56.014Z,32.50
